KYIP/YIP METAR and TAF weather

Enter ICAO airport designator
Station Type Date Time Source
KYIP METAR 2020/07/13 13:53 UTC NOAA

KYIP 131353Z VRB03KT 10SM CLR 24/15 A2997 RMK AO2 SLP142 T02390150


Station Type Date Time Source
KYIP Decoded METAR 2020/07/13 13:53 UTC NOAA

WILLOW RUN AIRPORT, MI, United States (KYIP) 42-14N 083-32W 215M
Jul 13, 2020 - 09:53 AM EDT / 2020.07.13 1353 UTC
Wind: Variable at 3 MPH (3 KT):0
Visibility: 10 mile(s):0
Sky conditions: clear
Temperature: 75.0 F (23.9 C)
Dew Point: 59.0 F (15.0 C)
Relative Humidity: 57%
Pressure (altimeter): 29.97 in. Hg (1014 hPa)
ob: KYIP 131353Z VRB03KT 10SM CLR 24/15 A2997 RMK AO2 SLP142 T02390150
cycle: 14

Station Type Date Time Source
KYIP TAF 2020/07/13 12:22 UTC NOAA

TAF KYIP 131120Z 1312/1412 35005KT P6SM FEW040
FM131500 34006KT P6SM BKN050
FM140000 01005KT P6SM SCT070
FM140200 10003KT P6SM FEW250

Example: see airport list